Mount Forest, Canada
Current Conditions -  °F | °C
As of 2:00 PM on Sunday 21 Dec 2014 (Local Time) from CYKF Reporting Station
Overcast Overcast  
Wind Chill: 23°   Ceiling: 2300
Heat Index: 28°   Visibility: 9mi
Dew Point: 21°   Wind: 5mph
Humidity: 74%   Direction: 180°S
Pressure: 30.25"   Gusts: NA
Location:  43.98°N, 80.73°W
Report Text: CYKF 211900Z AUTO 18004KT 170V290 9SM OVC023 M02/M06 A3025 RMK SLP259
Loading
Personal Weather Stations






























Interactive Weather Map New forecast layout! Learn more

10-Day Weather Forecast

Advertisements
Track Severe Weather on mobile